createdAt,value
2024-04-15T00:00:25.263Z,33.08
2024-04-15T00:01:25.319Z,33.08
2024-04-15T00:02:25.284Z,33.12
2024-04-15T00:03:25.266Z,33.08
2024-04-15T00:04:25.306Z,33.09
2024-04-15T00:05:25.272Z,33.05
2024-04-15T00:06:25.285Z,33.05
2024-04-15T00:07:25.280Z,33.08
2024-04-15T00:08:25.270Z,33.06
2024-04-15T00:09:25.278Z,33.07
2024-04-15T00:10:25.401Z,33.09
2024-04-15T00:11:25.358Z,33.11
2024-04-15T00:12:25.278Z,33.11
2024-04-15T00:13:25.290Z,33.09
2024-04-15T00:14:25.293Z,33.08
2024-04-15T00:15:25.296Z,33.11
2024-04-15T00:16:25.379Z,33.09
2024-04-15T00:17:25.301Z,33.13
2024-04-15T00:18:25.290Z,33.07
2024-04-15T00:19:25.294Z,33.12
2024-04-15T00:20:25.292Z,33.13
2024-04-15T00:21:25.297Z,33.13
2024-04-15T00:22:25.345Z,33.09
2024-04-15T00:23:25.377Z,33.08
2024-04-15T00:24:25.436Z,33.05
2024-04-15T00:25:25.515Z,33.11
2024-04-15T00:26:25.574Z,33.05
2024-04-15T00:27:25.666Z,33.05
2024-04-15T00:28:25.755Z,33.04
2024-04-15T00:29:25.818Z,33.03
2024-04-15T00:30:25.872Z,33.07
2024-04-15T00:31:25.939Z,33.08
2024-04-15T00:32:26.115Z,33.03
2024-04-15T00:33:26.212Z,33.06
2024-04-15T00:34:26.157Z,33.06
2024-04-15T00:35:28.882Z,33.03
2024-04-15T00:36:26.225Z,33.07
2024-04-15T00:37:26.220Z,33.06
2024-04-15T00:38:26.217Z,33.02
2024-04-15T00:39:26.225Z,33.03
2024-04-15T00:40:26.240Z,33.05
2024-04-15T00:41:26.245Z,33.03
2024-04-15T00:42:26.236Z,33.08
2024-04-15T00:43:26.239Z,33.01
2024-04-15T00:44:26.250Z,33.06
2024-04-15T00:45:26.248Z,33.02
2024-04-15T00:46:26.316Z,33.03
2024-04-15T00:47:26.242Z,33.05
2024-04-15T00:48:26.241Z,33.05
2024-04-15T00:49:26.250Z,33.05
2024-04-15T00:50:26.250Z,33.07
2024-04-15T00:51:26.247Z,33.03
2024-04-15T00:52:26.268Z,33.03
2024-04-15T00:53:26.252Z,33.05
2024-04-15T00:54:26.235Z,33.03
2024-04-15T00:55:26.259Z,33.06
2024-04-15T00:56:26.264Z,33.02
2024-04-15T00:57:26.260Z,33.03
2024-04-15T00:58:26.254Z,33.02
2024-04-15T00:59:26.270Z,33.05
2024-04-15T01:00:26.386Z,33.07
2024-04-15T01:01:26.595Z,33.02
2024-04-15T01:02:26.592Z,33.01
2024-04-15T01:03:26.546Z,33.00
2024-04-15T01:04:26.644Z,32.99
2024-04-15T01:05:26.677Z,33.02
2024-04-15T01:06:26.736Z,33.03
2024-04-15T01:07:26.810Z,33.07
2024-04-15T01:08:26.883Z,33.07
2024-04-15T01:09:26.956Z,33.03
2024-04-15T01:10:27.024Z,33.02
2024-04-15T01:11:27.130Z,33.06
2024-04-15T01:12:27.139Z,32.97
2024-04-15T01:13:27.205Z,33.02
2024-04-15T01:14:27.264Z,33.03
2024-04-15T01:15:27.344Z,32.99
2024-04-15T01:16:27.404Z,32.97
2024-04-15T01:17:27.526Z,32.99
2024-04-15T01:18:27.705Z,33.05
2024-04-15T01:19:27.597Z,33.02
2024-04-15T01:20:27.674Z,33.02
2024-04-15T01:21:27.744Z,32.99
2024-04-15T01:22:27.797Z,33.03
2024-04-15T01:23:27.868Z,32.98
2024-04-15T01:24:27.935Z,33.00
2024-04-15T01:25:27.999Z,33.00
2024-04-15T01:26:28.074Z,32.99
2024-04-15T01:27:28.138Z,33.00
2024-04-15T01:28:28.214Z,33.02
2024-04-15T01:29:28.262Z,32.99
2024-04-15T01:30:28.321Z,32.99
2024-04-15T01:31:28.393Z,32.99
2024-04-15T01:32:28.492Z,32.97
2024-04-15T01:33:28.542Z,32.96
2024-04-15T01:34:28.588Z,32.99
2024-04-15T01:35:28.623Z,32.97
2024-04-15T01:36:28.662Z,33.03
2024-04-15T01:37:28.735Z,32.96
2024-04-15T01:38:28.770Z,32.97
2024-04-15T01:39:28.839Z,33.03
2024-04-15T01:40:28.893Z,32.97
2024-04-15T01:41:28.946Z,32.97
2024-04-15T01:42:29.003Z,33.00
2024-04-15T01:43:29.056Z,32.96
2024-04-15T01:44:29.115Z,32.99
2024-04-15T01:45:29.177Z,32.95
2024-04-15T01:46:29.268Z,32.98
2024-04-15T01:47:29.399Z,32.97
2024-04-15T01:48:29.370Z,32.96
2024-04-15T01:49:29.447Z,32.96
2024-04-15T01:50:29.488Z,32.99
2024-04-15T01:51:29.552Z,33.00
2024-04-15T01:52:29.599Z,32.97
2024-04-15T01:53:29.686Z,32.95
2024-04-15T01:54:29.711Z,32.92
2024-04-15T01:55:29.769Z,32.97
2024-04-15T01:56:29.829Z,32.97
2024-04-15T01:57:29.891Z,32.95
2024-04-15T01:58:29.933Z,32.95
2024-04-15T01:59:29.982Z,32.97
2024-04-15T02:00:30.034Z,32.93
2024-04-15T02:01:30.114Z,32.93
2024-04-15T02:02:30.109Z,32.93
2024-04-15T02:03:30.158Z,32.95
2024-04-15T02:04:30.278Z,32.95
2024-04-15T02:05:30.259Z,32.96
2024-04-15T02:06:30.267Z,32.97
2024-04-15T02:07:30.323Z,32.97
2024-04-15T02:08:30.365Z,32.92
2024-04-15T02:09:30.408Z,32.96
2024-04-15T02:10:30.558Z,32.90
2024-04-15T02:11:30.519Z,32.90
2024-04-15T02:12:30.527Z,32.89
2024-04-15T02:13:30.593Z,32.96
2024-04-15T02:14:30.647Z,32.95
2024-04-15T02:15:30.677Z,32.94
2024-04-15T02:16:30.740Z,32.96
2024-04-15T02:17:30.813Z,32.97
2024-04-15T02:18:30.904Z,32.96
2024-04-15T02:19:30.843Z,32.94
2024-04-15T02:20:30.881Z,32.96
2024-04-15T02:21:30.932Z,32.93
2024-04-15T02:22:30.986Z,32.90
2024-04-15T02:23:31.041Z,32.94
2024-04-15T02:24:31.082Z,32.98
2024-04-15T02:25:31.132Z,32.91
2024-04-15T02:26:31.198Z,32.90
2024-04-15T02:27:31.219Z,32.94
2024-04-15T02:28:31.281Z,32.93
2024-04-15T02:29:31.338Z,32.90
2024-04-15T02:30:31.390Z,32.97
2024-04-15T02:31:31.463Z,32.91
2024-04-15T02:32:31.531Z,32.94
2024-04-15T02:33:31.546Z,32.91
2024-04-15T02:34:31.632Z,32.93
2024-04-15T02:35:31.676Z,32.93
2024-04-15T02:36:31.748Z,32.97
2024-04-15T02:37:31.822Z,32.93
2024-04-15T02:38:31.858Z,32.91
2024-04-15T02:39:31.903Z,32.90
2024-04-15T02:40:31.976Z,32.94
2024-04-15T02:41:32.020Z,32.94
2024-04-15T02:42:32.058Z,32.90
2024-04-15T02:43:32.111Z,32.90
2024-04-15T02:44:32.167Z,32.89
2024-04-15T02:45:32.229Z,32.89
2024-04-15T02:46:32.292Z,32.91
2024-04-15T02:47:32.403Z,32.91
2024-04-15T02:48:32.371Z,32.90
2024-04-15T02:49:32.399Z,32.94
2024-04-15T02:50:32.456Z,32.89
2024-04-15T02:51:32.721Z,32.90
2024-04-15T02:52:32.548Z,32.86
2024-04-15T02:53:32.626Z,32.90
2024-04-15T02:54:32.655Z,32.89
2024-04-15T02:55:32.705Z,32.93
2024-04-15T02:56:32.754Z,32.90
2024-04-15T02:57:32.797Z,32.91
2024-04-15T02:58:32.866Z,32.87
2024-04-15T02:59:32.905Z,32.90
2024-04-15T03:00:32.948Z,32.93
2024-04-15T03:01:33.040Z,32.90
2024-04-15T03:02:33.087Z,32.86
2024-04-15T03:03:33.096Z,32.93
2024-04-15T03:04:33.278Z,32.88
2024-04-15T03:05:33.184Z,32.90
2024-04-15T03:06:33.218Z,32.87
2024-04-15T03:07:33.277Z,32.83
2024-04-15T03:08:33.362Z,32.90
2024-04-15T03:09:33.421Z,32.88
2024-04-15T03:10:33.439Z,32.87
2024-04-15T03:11:33.563Z,32.87
2024-04-15T03:12:33.502Z,32.91
2024-04-15T03:13:33.535Z,32.88
2024-04-15T03:14:33.596Z,32.90
2024-04-15T03:15:33.629Z,32.87
2024-04-15T03:16:33.736Z,32.87
2024-04-15T03:17:33.759Z,32.91
2024-04-15T03:18:33.755Z,32.84
2024-04-15T03:19:33.784Z,32.87
2024-04-15T03:20:33.820Z,32.87
2024-04-15T03:21:33.863Z,32.84
2024-04-15T03:22:33.920Z,32.87
2024-04-15T03:23:33.950Z,32.86
2024-04-15T03:24:33.987Z,32.84
2024-04-15T03:25:34.087Z,32.86
2024-04-15T03:26:34.121Z,32.87
2024-04-15T03:27:34.149Z,32.84
2024-04-15T03:28:34.186Z,32.86
2024-04-15T03:29:34.232Z,32.83
2024-04-15T03:30:34.265Z,32.81
2024-04-15T03:31:34.375Z,32.83
2024-04-15T03:32:34.375Z,32.86
2024-04-15T03:33:34.373Z,32.86
2024-04-15T03:34:34.415Z,32.80
2024-04-15T03:35:34.487Z,32.84
2024-04-15T03:36:34.570Z,32.83
2024-04-15T03:37:34.562Z,32.83
2024-04-15T03:38:34.595Z,32.84
2024-04-15T03:39:34.637Z,32.84
2024-04-15T03:40:34.683Z,32.84
2024-04-15T03:41:34.746Z,32.86
2024-04-15T03:42:34.763Z,32.84
2024-04-15T03:43:34.811Z,32.85
2024-04-15T03:44:34.850Z,32.84
2024-04-15T03:45:34.912Z,32.81
2024-04-15T03:46:34.962Z,32.81
2024-04-15T03:47:35.405Z,32.83
2024-04-15T03:48:35.102Z,32.78
2024-04-15T03:49:35.106Z,32.83
2024-04-15T03:50:35.148Z,32.83
2024-04-15T03:51:35.212Z,32.80
2024-04-15T03:52:35.227Z,32.84
2024-04-15T03:53:35.278Z,32.81
2024-04-15T03:54:35.328Z,32.85
2024-04-15T03:55:35.346Z,32.83
2024-04-15T03:56:35.415Z,32.83
2024-04-15T03:57:35.418Z,32.84
2024-04-15T03:58:35.450Z,32.78
2024-04-15T03:59:35.522Z,32.84
2024-04-15T04:00:35.574Z,32.84
2024-04-15T04:01:35.749Z,32.81
2024-04-15T04:02:35.715Z,32.84
2024-04-15T04:03:35.715Z,32.81
2024-04-15T04:04:35.800Z,32.83
2024-04-15T04:05:35.808Z,32.81
2024-04-15T04:06:35.841Z,32.81
2024-04-15T04:07:35.862Z,32.84
2024-04-15T04:08:35.894Z,32.82
2024-04-15T04:09:35.942Z,32.83
2024-04-15T04:10:36.044Z,32.80
2024-04-15T04:11:36.083Z,32.85
2024-04-15T04:12:36.100Z,32.83
2024-04-15T04:13:36.166Z,32.80
2024-04-15T04:14:36.172Z,32.81
2024-04-15T04:15:36.202Z,32.81
2024-04-15T04:16:36.248Z,32.74
2024-04-15T04:17:36.333Z,32.81
2024-04-15T04:18:36.384Z,32.81
2024-04-15T04:19:36.348Z,32.80
2024-04-15T04:20:36.379Z,32.75
2024-04-15T04:21:36.479Z,32.78
2024-04-15T04:22:36.489Z,32.78
2024-04-15T04:23:36.536Z,32.81
2024-04-15T04:24:36.578Z,32.82
2024-04-15T04:25:36.631Z,32.84
2024-04-15T04:26:36.678Z,32.81
2024-04-15T04:27:36.726Z,32.80
2024-04-15T04:28:36.766Z,32.77
2024-04-15T04:29:36.834Z,32.78
2024-04-15T04:30:36.857Z,32.81
2024-04-15T04:31:36.911Z,32.73
2024-04-15T04:32:37.025Z,32.78
2024-04-15T04:33:37.014Z,32.73
2024-04-15T04:34:37.036Z,32.80
2024-04-15T04:35:37.088Z,32.81
2024-04-15T04:36:37.123Z,32.81
2024-04-15T04:37:38.822Z,32.82
2024-04-15T04:38:37.182Z,32.81
2024-04-15T04:39:37.172Z,32.80
2024-04-15T04:40:37.170Z,32.80
2024-04-15T04:41:37.188Z,32.80
2024-04-15T04:42:37.163Z,32.80
2024-04-15T04:43:37.164Z,32.80
2024-04-15T04:44:37.166Z,32.81
2024-04-15T04:45:37.212Z,32.80
2024-04-15T04:46:37.284Z,32.77
2024-04-15T04:47:37.291Z,32.82
2024-04-15T04:48:37.328Z,32.82
2024-04-15T04:49:37.400Z,32.80
2024-04-15T04:50:37.438Z,32.78
2024-04-15T04:51:37.476Z,32.84
2024-04-15T04:52:37.534Z,32.81
2024-04-15T04:53:37.576Z,32.77
2024-04-15T04:54:37.605Z,32.78
2024-04-15T04:55:37.644Z,32.78
2024-04-15T04:56:37.700Z,32.78
2024-04-15T04:57:37.750Z,32.78
2024-04-15T04:58:37.789Z,32.81
2024-04-15T04:59:37.846Z,32.82
2024-04-15T05:00:37.898Z,32.80
2024-04-15T05:01:38.168Z,32.80
2024-04-15T05:02:38.047Z,32.75
2024-04-15T05:03:38.085Z,32.78
2024-04-15T05:04:38.167Z,32.78
2024-04-15T05:05:38.132Z,32.77
2024-04-15T05:06:38.256Z,32.77
2024-04-15T05:07:38.242Z,32.78
2024-04-15T05:08:38.289Z,32.80
2024-04-15T05:09:38.333Z,32.81
2024-04-15T05:10:38.416Z,32.78
2024-04-15T05:11:38.482Z,32.75
2024-04-15T05:12:38.494Z,32.78
2024-04-15T05:13:38.573Z,32.77
2024-04-15T05:14:38.603Z,32.75
2024-04-15T05:15:38.655Z,32.75
2024-04-15T05:16:38.703Z,32.75
2024-04-15T05:17:38.803Z,32.78
2024-04-15T05:18:38.879Z,32.75
2024-04-15T05:19:38.867Z,32.78
2024-04-15T05:20:38.924Z,32.75
2024-04-15T05:21:38.978Z,32.74
2024-04-15T05:22:39.004Z,32.74
2024-04-15T05:23:39.087Z,32.77
2024-04-15T05:24:39.127Z,32.74
2024-04-15T05:25:39.168Z,32.74
2024-04-15T05:26:39.215Z,32.77
2024-04-15T05:27:39.233Z,32.77
2024-04-15T05:28:39.346Z,32.74
2024-04-15T05:29:39.339Z,32.77
2024-04-15T05:30:39.398Z,32.74
2024-04-15T05:31:39.468Z,32.71
2024-04-15T05:32:39.576Z,32.78
2024-04-15T05:33:39.709Z,32.73
2024-04-15T05:34:39.729Z,32.75
2024-04-15T05:35:39.632Z,32.71
2024-04-15T05:36:39.680Z,32.72
2024-04-15T05:37:39.717Z,32.75
2024-04-15T05:38:39.739Z,32.72
2024-04-15T05:39:39.775Z,32.75
2024-04-15T05:40:39.819Z,32.75
2024-04-15T05:41:39.899Z,32.79
2024-04-15T05:42:40.377Z,32.73
2024-04-15T05:43:40.029Z,32.74
2024-04-15T05:44:40.373Z,32.74
2024-04-15T05:45:40.152Z,32.71
2024-04-15T05:46:40.209Z,33.03
2024-04-15T05:47:40.320Z,33.03
2024-04-15T05:48:40.455Z,32.99
2024-04-15T05:49:40.458Z,33.02
2024-04-15T05:50:40.484Z,33.07
2024-04-15T05:51:40.554Z,33.09
2024-04-15T05:52:40.870Z,33.08
2024-04-15T05:53:40.788Z,33.17
2024-04-15T05:54:40.750Z,33.49
2024-04-15T05:55:40.867Z,33.66
2024-04-15T05:56:40.886Z,33.89
2024-04-15T05:57:40.957Z,33.98
2024-04-15T05:58:41.002Z,34.16
2024-04-15T05:59:41.366Z,34.25
2024-04-15T06:00:41.090Z,34.80
2024-04-15T06:01:41.251Z,34.67
2024-04-15T06:02:41.218Z,34.67
2024-04-15T06:03:57.003Z,34.59
2024-04-15T06:04:41.398Z,34.60
2024-04-15T06:05:41.384Z,34.53
2024-04-15T06:06:41.234Z,34.44
2024-04-15T06:07:41.251Z,34.34
2024-04-15T06:08:41.244Z,34.22
2024-04-15T06:09:42.379Z,34.27
2024-04-15T06:10:41.279Z,34.21
2024-04-15T06:11:41.235Z,34.18
2024-04-15T06:12:41.250Z,34.20
2024-04-15T06:13:41.569Z,34.16
2024-04-15T06:14:44.459Z,34.21
2024-04-15T06:15:41.262Z,34.12
2024-04-15T06:16:41.372Z,34.09
2024-04-15T06:17:41.444Z,34.08
2024-04-15T06:18:41.250Z,34.14
2024-04-15T06:19:41.247Z,34.12
2024-04-15T06:20:41.285Z,34.18
2024-04-15T06:21:41.308Z,34.14
2024-04-15T06:22:41.263Z,34.12
2024-04-15T06:23:41.253Z,34.23
2024-04-15T06:24:41.270Z,34.19
2024-04-15T06:25:41.332Z,34.23
2024-04-15T06:26:41.264Z,34.24
2024-04-15T06:27:48.804Z,34.30
2024-04-15T06:28:41.263Z,34.24
2024-04-15T06:29:41.272Z,34.31
2024-04-15T06:30:41.263Z,34.25
2024-04-15T06:31:41.268Z,34.31
2024-04-15T06:32:41.377Z,34.27
2024-04-15T06:33:41.293Z,34.26
2024-04-15T06:34:41.323Z,34.26
2024-04-15T06:35:41.286Z,34.25
2024-04-15T06:36:41.272Z,34.26
2024-04-15T06:37:41.312Z,34.27
2024-04-15T06:38:41.287Z,34.30
2024-04-15T06:39:41.291Z,34.23
2024-04-15T06:40:41.279Z,34.27
2024-04-15T06:41:41.293Z,34.27
2024-04-15T06:42:41.297Z,34.27
2024-04-15T06:43:41.286Z,34.26
2024-04-15T06:44:41.303Z,34.30
2024-04-15T06:45:41.400Z,34.18
2024-04-15T06:46:41.330Z,34.14
2024-04-15T06:47:41.299Z,34.14
2024-04-15T06:48:41.312Z,34.17
2024-04-15T06:49:41.307Z,34.17
2024-04-15T06:50:41.331Z,34.17
2024-04-15T06:51:41.334Z,34.09
2024-04-15T06:52:41.291Z,34.13
2024-04-15T06:53:41.329Z,34.09
2024-04-15T06:54:41.302Z,34.14
2024-04-15T06:55:41.328Z,34.08
2024-04-15T06:56:41.300Z,34.07
2024-04-15T06:57:41.397Z,34.07
2024-04-15T06:58:41.424Z,33.99
2024-04-15T06:59:41.941Z,33.98
2024-04-15T07:00:41.504Z,33.99
2024-04-15T07:01:42.353Z,34.01
2024-04-15T07:02:41.621Z,34.02
2024-04-15T07:03:41.647Z,33.95
2024-04-15T07:04:41.782Z,33.99
2024-04-15T07:05:41.750Z,33.94
2024-04-15T07:06:43.025Z,33.97
2024-04-15T07:07:41.804Z,33.94
2024-04-15T07:08:41.807Z,33.95
2024-04-15T07:09:41.864Z,33.95
2024-04-15T07:10:41.801Z,33.95
2024-04-15T07:11:41.846Z,33.94
2024-04-15T07:12:41.829Z,33.96
2024-04-15T07:13:49.246Z,33.99
2024-04-15T07:14:41.840Z,33.93
2024-04-15T07:15:41.847Z,33.95
2024-04-15T07:16:41.904Z,33.97
2024-04-15T07:17:41.874Z,33.95
2024-04-15T07:18:41.818Z,33.94
2024-04-15T07:19:41.821Z,33.94
2024-04-15T07:20:41.819Z,33.94
2024-04-15T07:21:42.929Z,33.92
2024-04-15T07:22:41.821Z,33.90
2024-04-15T07:23:41.833Z,33.91
2024-04-15T07:24:41.822Z,33.89
2024-04-15T07:25:49.252Z,33.87
2024-04-15T07:26:41.843Z,33.87
2024-04-15T07:27:41.832Z,33.86
2024-04-15T07:28:41.840Z,33.83
2024-04-15T07:29:41.837Z,33.99
2024-04-15T07:30:41.831Z,34.20
2024-04-15T07:31:41.940Z,34.23
2024-04-15T07:32:42.204Z,34.28
2024-04-15T07:33:41.861Z,34.36
2024-04-15T07:34:41.840Z,34.43
2024-04-15T07:35:45.071Z,34.53
2024-04-15T07:36:41.853Z,34.59
2024-04-15T07:37:41.926Z,34.65
2024-04-15T07:38:42.864Z,34.72
2024-04-15T07:39:41.850Z,34.77
2024-04-15T07:40:41.916Z,34.78
2024-04-15T07:41:41.888Z,34.79
2024-04-15T07:42:44.727Z,34.80
2024-04-15T07:43:41.850Z,34.80
2024-04-15T07:44:41.881Z,34.91
2024-04-15T07:45:41.859Z,35.06
2024-04-15T07:46:41.936Z,35.11
2024-04-15T07:47:40.952Z,35.23
2024-04-15T07:48:41.881Z,35.22
2024-04-15T07:49:41.886Z,35.40
2024-04-15T07:50:41.871Z,35.45
2024-04-15T07:51:41.955Z,35.68
2024-04-15T07:52:41.862Z,35.90
2024-04-15T07:53:42.856Z,35.64
2024-04-15T07:54:41.853Z,35.61
2024-04-15T07:55:41.921Z,35.59
2024-04-15T07:56:41.980Z,35.52
2024-04-15T07:57:41.950Z,35.52
2024-04-15T07:58:41.852Z,35.52
2024-04-15T07:59:41.858Z,35.49
2024-04-15T08:00:41.860Z,35.49
2024-04-15T08:01:41.970Z,35.46
2024-04-15T08:02:41.941Z,35.37
2024-04-15T08:03:41.903Z,35.18
2024-04-15T08:04:41.913Z,35.14
2024-04-15T08:05:41.859Z,35.25
2024-04-15T08:06:41.912Z,35.20
2024-04-15T08:07:42.050Z,35.21
2024-04-15T08:08:42.871Z,35.12
2024-04-15T08:09:41.876Z,35.25
2024-04-15T08:10:41.874Z,35.21
2024-04-15T08:11:42.872Z,35.24
2024-04-15T08:12:45.008Z,35.26
2024-04-15T08:13:41.897Z,35.16
2024-04-15T08:14:41.954Z,35.23
2024-04-15T08:15:41.874Z,35.21
2024-04-15T08:16:42.005Z,35.24
2024-04-15T08:17:41.901Z,35.22
2024-04-15T08:18:41.941Z,35.24
2024-04-15T08:19:41.907Z,35.25
2024-04-15T08:20:41.928Z,35.23
2024-04-15T08:21:49.366Z,35.26
2024-04-15T08:22:42.016Z,35.26
2024-04-15T08:23:42.435Z,35.26
2024-04-15T08:24:41.972Z,35.29
2024-04-15T08:25:41.980Z,35.22
2024-04-15T08:26:42.000Z,35.22
2024-04-15T08:27:41.973Z,35.21
2024-04-15T08:28:42.444Z,35.20
2024-04-15T08:29:41.988Z,35.21
2024-04-15T08:30:41.981Z,35.20
2024-04-15T08:31:41.974Z,35.18
2024-04-15T08:32:42.517Z,35.22
2024-04-15T08:33:42.048Z,35.12
2024-04-15T08:34:42.064Z,35.17
2024-04-15T08:35:42.058Z,35.15
2024-04-15T08:36:42.099Z,35.13
2024-04-15T08:37:43.008Z,35.14
2024-04-15T08:38:41.993Z,35.09
2024-04-15T08:39:42.457Z,35.11
2024-04-15T08:40:41.993Z,35.06
2024-04-15T08:41:47.048Z,35.13
2024-04-15T08:42:42.450Z,35.10
2024-04-15T08:43:45.662Z,35.11
2024-04-15T08:44:42.474Z,35.11
2024-04-15T08:45:42.081Z,35.06
2024-04-15T08:46:43.788Z,35.11
2024-04-15T08:47:49.523Z,35.03
2024-04-15T08:48:42.056Z,35.01
2024-04-15T08:49:42.082Z,35.07
2024-04-15T08:50:42.055Z,35.02
2024-04-15T08:51:42.029Z,35.03
2024-04-15T08:52:42.475Z,34.99
2024-04-15T08:53:42.023Z,34.98
2024-04-15T08:54:42.045Z,35.01
2024-04-15T08:55:42.076Z,34.98
2024-04-15T08:56:42.059Z,34.98
2024-04-15T08:57:42.087Z,34.99
2024-04-15T08:58:42.456Z,34.96
2024-04-15T08:59:42.029Z,34.97
2024-04-15T09:00:42.069Z,34.94
2024-04-15T09:01:42.160Z,34.94
2024-04-15T09:02:42.475Z,34.89
2024-04-15T09:03:42.048Z,34.96
2024-04-15T09:04:42.219Z,34.93
2024-04-15T09:05:42.042Z,34.93
2024-04-15T09:06:42.052Z,34.89
2024-04-15T09:07:42.050Z,34.91
2024-04-15T09:08:42.083Z,34.89
2024-04-15T09:09:42.063Z,34.80
2024-04-15T09:10:49.461Z,34.83
2024-04-15T09:11:42.187Z,34.81
2024-04-15T09:12:42.064Z,34.80
2024-04-15T09:13:42.174Z,34.88
2024-04-15T09:14:42.067Z,34.84
2024-04-15T09:15:42.153Z,34.79
2024-04-15T09:16:42.102Z,34.78
2024-04-15T09:17:42.592Z,34.83
2024-04-15T09:18:42.476Z,34.76
2024-04-15T09:19:42.082Z,34.75
2024-04-15T09:20:50.240Z,34.74
2024-04-15T09:21:42.085Z,34.70
2024-04-15T09:22:42.466Z,34.71
2024-04-15T09:23:57.703Z,34.74
2024-04-15T09:24:42.508Z,34.71
2024-04-15T09:25:42.517Z,34.74
2024-04-15T09:26:43.343Z,34.71
2024-04-15T09:27:42.101Z,34.71
2024-04-15T09:28:42.483Z,34.87
2024-04-15T09:29:43.314Z,34.93
2024-04-15T09:30:42.489Z,35.06
2024-04-15T09:31:42.312Z,35.08
2024-04-15T09:32:42.624Z,35.17
2024-04-15T09:33:42.401Z,35.31
2024-04-15T09:34:42.470Z,35.42
2024-04-15T09:35:42.467Z,35.52
2024-04-15T09:36:42.477Z,35.51
2024-04-15T09:37:42.984Z,35.70
2024-04-15T09:38:43.098Z,35.75
2024-04-15T09:39:42.609Z,35.94
2024-04-15T09:40:42.664Z,35.95
2024-04-15T09:41:42.727Z,35.90
2024-04-15T09:42:42.993Z,36.25
2024-04-15T09:43:42.860Z,36.60
2024-04-15T09:44:43.159Z,36.83
2024-04-15T09:45:58.998Z,36.87
2024-04-15T09:46:59.378Z,36.80
2024-04-15T09:47:46.739Z,37.07
2024-04-15T09:48:46.253Z,37.03
2024-04-15T09:49:43.079Z,37.13
2024-04-15T09:50:43.488Z,37.20
2024-04-15T09:51:43.009Z,37.12
2024-04-15T09:52:43.515Z,37.15
2024-04-15T09:53:43.065Z,37.23
2024-04-15T09:54:43.031Z,37.17
2024-04-15T09:55:43.023Z,37.18
2024-04-15T09:56:43.022Z,37.71
2024-04-15T09:57:43.055Z,37.64
2024-04-15T09:58:44.496Z,37.57
2024-04-15T09:59:43.027Z,37.52
2024-04-15T10:00:43.090Z,37.39
2024-04-15T10:01:43.170Z,37.37
2024-04-15T10:02:44.275Z,37.34
2024-04-15T10:03:43.203Z,37.33
2024-04-15T10:04:43.324Z,37.28
2024-04-15T10:05:43.269Z,37.30
2024-04-15T10:06:43.502Z,37.30
2024-04-15T10:07:46.520Z,37.34
2024-04-15T10:08:43.461Z,37.33
2024-04-15T10:09:43.315Z,37.29
2024-04-15T10:10:44.519Z,37.28
2024-04-15T10:11:43.333Z,37.30
2024-04-15T10:12:43.314Z,37.33
2024-04-15T10:13:43.314Z,37.49
2024-04-15T10:14:43.303Z,37.49
2024-04-15T10:15:43.314Z,37.69
2024-04-15T10:16:44.557Z,37.92
2024-04-15T10:17:43.358Z,37.99
2024-04-15T10:18:43.494Z,38.24
2024-04-15T10:19:43.331Z,38.57
2024-04-15T10:20:46.585Z,38.60
2024-04-15T10:21:46.550Z,38.88
2024-04-15T10:22:43.502Z,39.03
2024-04-15T10:23:43.358Z,39.02
2024-04-15T10:24:43.368Z,39.08
2024-04-15T10:25:43.370Z,39.15
2024-04-15T10:26:43.380Z,38.98
2024-04-15T10:27:43.387Z,38.77
2024-04-15T10:28:43.373Z,38.60
2024-04-15T10:29:43.374Z,38.56
2024-04-15T10:30:43.395Z,38.47
2024-04-15T10:31:43.435Z,38.49
2024-04-15T10:32:43.572Z,38.47
2024-04-15T10:33:43.712Z,38.42
2024-04-15T10:34:43.389Z,38.41
2024-04-15T10:35:43.404Z,38.44
2024-04-15T10:36:43.573Z,38.35
2024-04-15T10:37:43.527Z,38.35
2024-04-15T10:38:43.419Z,38.36
2024-04-15T10:39:43.394Z,38.45
2024-04-15T10:40:43.438Z,38.46
2024-04-15T10:41:43.522Z,38.48
2024-04-15T10:42:43.405Z,38.52
2024-04-15T10:43:43.453Z,38.56
2024-04-15T10:44:43.408Z,38.58
2024-04-15T10:45:43.511Z,38.63
2024-04-15T10:46:43.424Z,38.64
2024-04-15T10:47:44.555Z,38.72
2024-04-15T10:48:43.407Z,38.65
2024-04-15T10:49:43.432Z,38.61
2024-04-15T10:50:43.539Z,38.64
2024-04-15T10:51:43.437Z,38.69
2024-04-15T10:52:43.526Z,38.77
2024-04-15T10:53:43.411Z,38.70
2024-04-15T10:54:43.419Z,38.69
2024-04-15T10:55:43.430Z,38.72
2024-04-15T10:56:43.466Z,38.75
2024-04-15T10:57:44.086Z,38.74
2024-04-15T10:58:43.630Z,38.70
2024-04-15T10:59:43.684Z,38.83
2024-04-15T11:00:43.785Z,38.85
2024-04-15T11:01:43.814Z,38.89
2024-04-15T11:02:44.037Z,38.90
2024-04-15T11:03:43.900Z,38.96
2024-04-15T11:04:44.018Z,38.93
2024-04-15T11:05:44.115Z,38.91
2024-04-15T11:06:44.033Z,38.99
2024-04-15T11:07:44.529Z,39.01
2024-04-15T11:08:44.145Z,39.04
2024-04-15T11:09:44.191Z,39.05
2024-04-15T11:10:44.216Z,39.08
2024-04-15T11:11:44.296Z,39.14
2024-04-15T11:12:48.252Z,39.18
2024-04-15T11:13:44.279Z,39.11
2024-04-15T11:14:44.336Z,38.95
2024-04-15T11:15:44.540Z,38.40
2024-04-15T11:16:44.365Z,38.27
2024-04-15T11:17:44.626Z,38.33
2024-04-15T11:18:44.258Z,38.19
2024-04-15T11:19:44.272Z,38.33
2024-04-15T11:20:44.261Z,38.37
2024-04-15T11:21:44.773Z,38.49
2024-04-15T11:22:44.631Z,38.63
2024-04-15T11:23:44.273Z,38.69
2024-04-15T11:24:44.329Z,38.76
2024-04-15T11:25:44.422Z,38.89
2024-04-15T11:26:44.402Z,39.01
2024-04-15T11:27:44.407Z,39.06
2024-04-15T11:28:44.529Z,39.06
2024-04-15T11:29:52.264Z,39.24
2024-04-15T11:30:44.390Z,39.29
2024-04-15T11:31:44.390Z,39.27
2024-04-15T11:32:44.453Z,39.55
2024-04-15T11:33:44.616Z,39.45
2024-04-15T11:34:44.451Z,39.92
2024-04-15T11:35:44.390Z,39.91
2024-04-15T11:36:44.397Z,40.23
2024-04-15T11:37:44.560Z,40.17
2024-04-15T11:38:44.409Z,40.34
2024-04-15T11:39:44.413Z,40.38
2024-04-15T11:40:44.419Z,40.57
2024-04-15T11:41:44.553Z,40.59
2024-04-15T11:42:44.410Z,40.66
2024-04-15T11:43:44.545Z,40.45
2024-04-15T11:44:44.451Z,40.39
2024-04-15T11:45:45.363Z,40.44
2024-04-15T11:46:44.673Z,40.38
2024-04-15T11:47:44.768Z,40.36
2024-04-15T11:48:44.704Z,40.30
2024-04-15T11:49:44.740Z,40.26
2024-04-15T11:50:44.779Z,40.27
2024-04-15T11:51:44.797Z,40.26
2024-04-15T11:52:44.810Z,40.41
2024-04-15T11:53:44.835Z,40.46
2024-04-15T11:54:44.843Z,40.30
2024-04-15T11:55:44.886Z,40.46
2024-04-15T11:56:44.869Z,40.16
2024-04-15T11:57:44.853Z,40.21
2024-04-15T11:58:44.901Z,40.13
2024-04-15T11:59:44.958Z,40.11
2024-04-15T12:00:45.097Z,39.97
2024-04-15T12:01:45.610Z,40.10
2024-04-15T12:02:45.091Z,39.96
2024-04-15T12:03:45.229Z,40.03
2024-04-15T12:04:45.221Z,40.17
2024-04-15T12:05:45.251Z,40.31
2024-04-15T12:06:46.011Z,40.42
2024-04-15T12:07:45.359Z,40.53
2024-04-15T12:08:45.464Z,40.55
2024-04-15T12:09:45.459Z,40.53
2024-04-15T12:10:45.542Z,40.89
2024-04-15T12:11:45.572Z,41.15
2024-04-15T12:12:45.592Z,41.12
2024-04-15T12:13:45.838Z,41.23
2024-04-15T12:14:45.668Z,41.51
2024-04-15T12:15:45.768Z,41.53
2024-04-15T12:16:45.888Z,41.57
2024-04-15T12:17:45.876Z,41.49
2024-04-15T12:18:45.834Z,41.51
2024-04-15T12:19:46.087Z,41.77
2024-04-15T12:20:45.996Z,42.09
2024-04-15T12:21:46.417Z,42.23
2024-04-15T12:22:46.053Z,42.47
2024-04-15T12:23:46.057Z,42.43
2024-04-15T12:24:57.424Z,42.42
2024-04-15T12:25:46.174Z,42.58
2024-04-15T12:26:46.071Z,42.63
2024-04-15T12:27:46.586Z,42.57
2024-04-15T12:28:46.096Z,42.61
2024-04-15T12:29:46.070Z,42.69
2024-04-15T12:30:46.061Z,42.68
2024-04-15T12:31:46.153Z,42.72
2024-04-15T12:32:46.084Z,42.69
2024-04-15T12:33:46.082Z,42.76
2024-04-15T12:34:46.103Z,42.79
2024-04-15T12:35:46.071Z,42.80
2024-04-15T12:36:46.084Z,42.80
2024-04-15T12:37:46.090Z,42.79
2024-04-15T12:38:47.676Z,42.74
2024-04-15T12:39:46.255Z,42.72
2024-04-15T12:40:46.080Z,42.84
2024-04-15T12:41:46.080Z,42.84
2024-04-15T12:42:46.080Z,42.77
2024-04-15T12:43:46.114Z,42.77
2024-04-15T12:44:46.100Z,42.72
2024-04-15T12:45:46.080Z,42.81
2024-04-15T12:46:46.091Z,42.71
2024-04-15T12:47:46.186Z,42.69
2024-04-15T12:48:46.151Z,42.74
2024-04-15T12:49:46.090Z,42.80
2024-04-15T12:50:46.100Z,42.83
2024-04-15T12:51:46.101Z,42.77
2024-04-15T12:52:46.150Z,42.79